Time;durP1;ratioP1;P1;durP2;ratioP2;P2;SDS_P1;SDS_P2;PMS_P1;PMS_P2;Temp;Humidity;BMP_temperature;BMP_pressure;BME280_temperature;BME280_humidity;BME280_pressure;Samples;Min_cycle;Max_cycle;Signal;HPM_P1;HPM_P2
2022/01/30 00:02:02;;;;;;;16.77;4.53;;;7.10;88.80;;;;;;5049553;28;20084;-64
2022/01/30 00:04:29;;;;;;;16.58;4.93;;;7.20;88.80;;;;;;5032287;28;20055;-64
2022/01/30 00:06:56;;;;;;;14.73;5.32;;;7.10;89.10;;;;;;5000557;28;20054;-64
2022/01/30 00:09:23;;;;;;;16.23;5.50;;;7.10;90.00;;;;;;5033460;28;20085;-64
2022/01/30 00:11:55;;;;;;;14.18;4.82;;;7.10;89.70;;;;;;5043815;28;20060;-65
2022/01/30 00:14:24;;;;;;;11.55;3.65;;;7.10;90.00;;;;;;5033103;28;20552;-64
2022/01/30 00:16:59;;;;;;;13.10;3.60;;;7.10;90.00;;;;;;5018784;28;20060;-68
2022/01/30 00:19:44;;;;;;;14.50;4.70;;;7.00;90.40;;;;;;5051472;28;20052;-64
2022/01/30 00:24:57;;;;;;;16.48;4.15;;;6.90;90.60;;;;;;5042879;28;20053;-65
2022/01/30 00:27:33;;;;;;;14.48;4.50;;;6.90;91.00;;;;;;5033216;28;20419;-64
2022/01/30 00:30:02;;;;;;;15.88;4.30;;;6.80;91.40;;;;;;5032984;28;20053;-66
2022/01/30 00:32:29;;;;;;;190.03;136.83;;;6.70;91.80;;;;;;5039438;28;20055;-64
2022/01/30 00:35:16;;;;;;;82.25;56.22;;;6.80;92.50;;;;;;5044190;28;20369;-64
2022/01/30 00:37:48;;;;;;;130.52;103.25;;;6.70;92.40;;;;;;5049943;28;20041;-64
2022/01/30 00:40:32;;;;;;;109.63;87.18;;;6.70;92.70;;;;;;5027815;28;20049;-65
2022/01/30 00:42:59;;;;;;;37.58;24.55;;;6.60;93.60;;;;;;5044544;28;20053;-65
2022/01/30 00:45:27;;;;;;;28.98;14.15;;;6.50;93.40;;;;;;5052478;28;20136;-65
2022/01/30 00:47:54;;;;;;;24.58;9.52;;;6.40;95.00;;;;;;5048701;28;20056;-65
2022/01/30 00:50:21;;;;;;;17.98;6.30;;;6.40;96.30;;;;;;5029125;28;20041;-64
2022/01/30 00:52:53;;;;;;;15.02;6.10;;;6.30;96.20;;;;;;5010372;28;20152;-66
2022/01/30 00:55:27;;;;;;;14.25;5.50;;;6.20;96.70;;;;;;5008537;28;20054;-64
2022/01/30 00:57:54;;;;;;;14.68;5.22;;;6.20;96.30;;;;;;5012183;28;20038;-64
2022/01/30 01:00:22;;;;;;;12.05;4.38;;;6.10;97.00;;;;;;4997781;28;20050;-66
2022/01/30 01:02:49;;;;;;;12.25;4.68;;;6.10;96.50;;;;;;5012293;28;20049;-64
2022/01/30 01:05:17;;;;;;;18.63;5.57;;;6.00;96.80;;;;;;5011878;28;20050;-64
2022/01/30 01:07:46;;;;;;;13.60;4.35;;;6.00;97.90;;;;;;4992007;28;20509;-64
2022/01/30 01:10:28;;;;;;;;;;;5.90;98.30;;;;;;5012603;28;20137;-64
2022/01/30 01:23:52;;;;;;;14.55;5.00;;;5.70;99.20;;;;;;5012158;28;20061;-64
2022/01/30 01:26:23;;;;;;;14.18;4.90;;;5.60;99.90;;;;;;5010176;28;20053;-65
2022/01/30 01:28:50;;;;;;;18.25;6.15;;;5.60;99.90;;;;;;5011581;28;20053;-65
2022/01/30 01:31:17;;;;;;;13.50;5.32;;;5.60;99.90;;;;;;5011618;28;20049;-64
2022/01/30 01:36:14;;;;;;;12.68;5.68;;;5.60;99.90;;;;;;5000890;28;20064;-64
2022/01/30 01:38:41;;;;;;;16.90;4.78;;;5.60;99.90;;;;;;5010028;28;20050;-65
2022/01/30 01:41:08;;;;;;;28.60;7.85;;;5.50;99.90;;;;;;5001083;28;20054;-64
2022/01/30 01:43:35;;;;;;;23.55;6.72;;;5.50;99.90;;;;;;5006710;28;20377;-65
2022/01/30 01:46:03;;;;;;;17.40;5.13;;;5.40;99.90;;;;;;4994570;28;20049;-64
2022/01/30 01:48:34;;;;;;;26.08;6.22;;;5.40;99.90;;;;;;5010283;28;20061;-65
2022/01/30 01:51:07;;;;;;;19.17;6.30;;;5.40;99.90;;;;;;5011025;28;20113;-64
2022/01/30 01:53:34;;;;;;;18.70;6.28;;;5.40;99.90;;;;;;5040223;28;20506;-64
2022/01/30 01:56:01;;;;;;;24.83;6.38;;;5.40;99.90;;;;;;5016195;28;20049;-64
2022/01/30 01:58:28;;;;;;;19.02;5.00;;;5.40;99.90;;;;;;5033869;28;20051;-66
2022/01/30 02:00:55;;;;;;;13.70;5.80;;;5.40;99.90;;;;;;5045823;28;20446;-65
2022/01/30 02:03:22;;;;;;;22.90;6.70;;;5.40;99.90;;;;;;5046254;28;20045;-64
2022/01/30 02:05:55;;;;;;;14.80;5.45;;;5.30;99.90;;;;;;5015370;28;20049;-64
2022/01/30 02:27:38;;;;;;;12.80;5.00;;;5.10;99.90;;;;;;5030467;28;20045;-64
2022/01/30 02:30:15;;;;;;;17.67;5.80;;;5.10;99.90;;;;;;5048035;28;20041;-65
2022/01/30 02:32:42;;;;;;;17.15;4.70;;;5.10;99.90;;;;;;5034109;28;20071;-65
2022/01/30 02:35:09;;;;;;;21.23;5.15;;;5.00;99.90;;;;;;4999304;28;20046;-65
2022/01/30 02:37:36;;;;;;;13.48;4.38;;;5.00;99.90;;;;;;5037015;28;20049;-65
2022/01/30 02:40:07;;;;;;;13.57;4.72;;;5.00;99.90;;;;;;5018951;28;20057;-70
2022/01/30 02:42:41;;;;;;;17.35;6.05;;;5.00;99.90;;;;;;5043932;28;20080;-68
2022/01/30 02:45:11;;;;;;;91.15;53.13;;;5.00;99.90;;;;;;5017641;28;20049;-65
2022/01/30 02:47:54;;;;;;;269.50;161.80;;;5.00;99.90;;;;;;5040533;28;20055;-65
2022/01/30 02:50:49;;;;;;;44.85;25.63;;;5.00;99.90;;;;;;5038424;28;20048;-68
2022/01/30 02:53:16;;;;;;;31.92;23.38;;;4.90;99.90;;;;;;5029773;28;20045;-65
2022/01/30 02:55:44;;;;;;;24.35;8.52;;;4.80;99.90;;;;;;4998558;28;20045;-65
2022/01/30 02:58:11;;;;;;;14.93;6.68;;;4.70;99.90;;;;;;5031698;28;20450;-65
2022/01/30 03:00:38;;;;;;;18.13;7.68;;;4.60;99.90;;;;;;5041888;28;20041;-65
2022/01/30 03:03:05;;;;;;;13.77;4.97;;;4.60;99.90;;;;;;5041756;28;20049;-69
2022/01/30 03:05:32;;;;;;;16.63;4.75;;;4.60;99.90;;;;;;5031418;28;20060;-65
2022/01/30 03:07:59;;;;;;;13.88;5.35;;;4.60;99.90;;;;;;5019885;28;20045;-65
2022/01/30 03:10:26;;;;;;;12.88;4.70;;;4.50;99.90;;;;;;5014478;28;20053;-65
2022/01/30 03:12:53;;;;;;;14.70;4.80;;;4.50;99.90;;;;;;5012916;28;20052;-67
2022/01/30 03:15:20;;;;;;;13.05;5.50;;;4.40;99.90;;;;;;5043487;28;20065;-65
2022/01/30 03:17:47;;;;;;;11.13;4.18;;;4.40;99.90;;;;;;5017580;28;20045;-65
2022/01/30 03:20:14;;;;;;;17.67;5.65;;;4.30;99.90;;;;;;5017579;28;20049;-65
2022/01/30 03:22:41;;;;;;;14.15;5.28;;;4.30;99.90;;;;;;5037528;28;20116;-65
2022/01/30 03:25:08;;;;;;;18.15;4.32;;;4.20;99.90;;;;;;5052483;28;20055;-63
2022/01/30 03:27:35;;;;;;;15.32;6.00;;;4.20;99.90;;;;;;5016305;28;20140;-64
2022/01/30 03:30:04;;;;;;;16.65;4.53;;;4.10;99.90;;;;;;5038304;28;20120;-65
2022/01/30 03:32:31;;;;;;;14.38;5.40;;;4.10;99.90;;;;;;5020636;28;20129;-64
2022/01/30 03:34:58;;;;;;;13.30;4.30;;;4.00;99.90;;;;;;5026613;28;20045;-64
2022/01/30 03:37:25;;;;;;;14.55;4.82;;;4.00;99.90;;;;;;5018597;28;20061;-69
2022/01/30 03:39:52;;;;;;;9.10;4.10;;;3.90;99.90;;;;;;5034971;28;20077;-64
2022/01/30 03:42:19;;;;;;;14.93;4.60;;;3.90;99.90;;;;;;5035276;28;20053;-64
2022/01/30 03:44:46;;;;;;;19.70;4.88;;;3.90;99.90;;;;;;5026999;28;20399;-65
2022/01/30 03:47:13;;;;;;;14.07;4.07;;;3.90;99.90;;;;;;5048126;28;20049;-64
2022/01/30 03:49:40;;;;;;;16.40;4.82;;;3.80;99.90;;;;;;5005955;28;20038;-64
2022/01/30 03:52:07;;;;;;;14.43;4.53;;;3.80;99.90;;;;;;5004183;28;20058;-64
2022/01/30 03:54:35;;;;;;;12.07;4.40;;;3.80;99.90;;;;;;4995802;28;20053;-64
2022/01/30 03:57:03;;;;;;;8.68;3.65;;;3.70;99.90;;;;;;5011472;28;20473;-64
2022/01/30 03:59:30;;;;;;;13.30;4.22;;;3.70;99.90;;;;;;5011561;28;20049;-69
2022/01/30 04:01:57;;;;;;;9.93;4.20;;;3.60;99.90;;;;;;5012585;28;20053;-64
2022/01/30 04:04:24;;;;;;;7.88;3.50;;;3.60;99.90;;;;;;5012230;28;20053;-64
2022/01/30 04:06:51;;;;;;;12.10;3.97;;;3.50;99.90;;;;;;5013041;28;20124;-65
2022/01/30 04:09:19;;;;;;;17.65;4.55;;;3.50;99.90;;;;;;5011480;28;20050;-64
2022/01/30 04:11:46;;;;;;;8.60;3.55;;;3.50;99.90;;;;;;5012883;28;20124;-64
2022/01/30 04:14:13;;;;;;;10.63;4.18;;;3.50;99.90;;;;;;5013060;28;20481;-64
2022/01/30 04:16:40;;;;;;;15.73;4.03;;;3.50;99.90;;;;;;5013934;28;20141;-64
2022/01/30 04:19:07;;;;;;;16.05;5.00;;;3.40;99.90;;;;;;5012775;28;20038;-65
2022/01/30 04:21:34;;;;;;;13.30;4.03;;;3.40;99.90;;;;;;5010478;28;20465;-64
2022/01/30 04:24:01;;;;;;;12.98;4.10;;;3.30;99.90;;;;;;5012457;28;20046;-65
2022/01/30 04:26:28;;;;;;;10.88;5.05;;;3.30;99.90;;;;;;5012154;28;20124;-64
2022/01/30 04:28:55;;;;;;;11.75;4.95;;;3.20;99.90;;;;;;5011890;28;20045;-64
2022/01/30 04:31:22;;;;;;;11.95;3.88;;;3.20;99.90;;;;;;5011537;28;20052;-64
2022/01/30 04:33:49;;;;;;;15.95;5.68;;;3.20;99.90;;;;;;5011856;28;20130;-64
2022/01/30 04:36:23;;;;;;;10.63;3.90;;;3.30;99.90;;;;;;5009039;28;20130;-64
2022/01/30 04:39:01;;;;;;;8.38;3.55;;;3.20;99.90;;;;;;5012542;28;20050;-64
2022/01/30 05:00:51;;;;;;;17.23;4.15;;;3.10;99.90;;;;;;5012694;28;20057;-65
2022/01/30 05:05:59;;;;;;;14.15;4.07;;;2.90;99.90;;;;;;5034581;28;20057;-65
2022/01/30 05:08:27;;;;;;;11.35;3.50;;;2.90;99.90;;;;;;5022467;28;20051;-64
2022/01/30 05:10:54;;;;;;;10.93;5.13;;;2.90;99.90;;;;;;5039608;28;20045;-64
2022/01/30 05:13:25;;;;;;;13.13;5.68;;;2.80;99.90;;;;;;5015024;28;20056;-65
2022/01/30 05:15:52;;;;;;;14.68;4.05;;;2.80;99.90;;;;;;5033038;28;20503;-66
2022/01/30 05:18:24;;;;;;;8.43;3.30;;;2.70;99.90;;;;;;5048346;28;20052;-64
2022/01/30 05:20:51;;;;;;;13.60;4.25;;;2.70;99.90;;;;;;5051675;28;20053;-65
2022/01/30 05:23:18;;;;;;;9.07;3.80;;;2.70;99.90;;;;;;5020092;28;20045;-64
2022/01/30 05:25:46;;;;;;;15.15;4.15;;;2.70;99.90;;;;;;5015439;28;20061;-64
2022/01/30 05:28:17;;;;;;;13.00;4.00;;;2.60;99.90;;;;;;5032360;28;20137;-64
2022/01/30 05:30:45;;;;;;;10.00;4.57;;;2.60;99.90;;;;;;5014404;28;20064;-67
2022/01/30 05:33:12;;;;;;;13.38;4.18;;;2.50;99.90;;;;;;5016204;28;20050;-65
2022/01/30 05:35:40;;;;;;;11.00;3.55;;;2.50;99.90;;;;;;5033179;28;20055;-64
2022/01/30 05:38:07;;;;;;;10.32;3.40;;;2.50;99.90;;;;;;5029381;28;20042;-64
2022/01/30 05:40:37;;;;;;;17.08;4.00;;;2.40;99.90;;;;;;5032643;28;20071;-67
2022/01/30 05:43:05;;;;;;;10.10;3.42;;;2.40;99.90;;;;;;5013731;28;20053;-71
2022/01/30 05:45:39;;;;;;;19.33;5.15;;;2.40;99.90;;;;;;5016554;28;20045;-64
2022/01/30 05:48:25;;;;;;;14.63;4.43;;;2.40;99.90;;;;;;5020096;28;20050;-66
2022/01/30 05:50:52;;;;;;;9.25;3.38;;;2.40;99.90;;;;;;5024694;28;20572;-64
2022/01/30 05:53:19;;;;;;;13.43;3.83;;;2.40;99.90;;;;;;5035236;28;20370;-64
2022/01/30 05:55:46;;;;;;;14.40;4.93;;;2.40;99.90;;;;;;5019426;28;20049;-67
2022/01/30 05:58:13;;;;;;;9.65;4.80;;;2.30;99.90;;;;;;5041245;28;20082;-64
2022/01/30 06:00:40;;;;;;;17.33;5.63;;;2.30;99.90;;;;;;5023119;28;20401;-64
2022/01/30 06:03:07;;;;;;;10.57;4.30;;;2.30;99.90;;;;;;5026028;28;20103;-64
2022/01/30 06:05:34;;;;;;;14.38;4.53;;;2.20;99.90;;;;;;5045066;28;20099;-64
2022/01/30 06:08:11;;;;;;;15.30;3.88;;;2.20;99.90;;;;;;5035348;28;20065;-66
2022/01/30 06:10:38;;;;;;;9.85;5.28;;;2.20;99.90;;;;;;5029153;28;20456;-64
2022/01/30 06:13:05;;;;;;;11.18;4.78;;;2.20;99.90;;;;;;5021714;28;20055;-65
2022/01/30 06:15:31;;;;;;;10.60;4.13;;;2.20;99.90;;;;;;5045821;28;20164;-65
2022/01/30 06:17:58;;;;;;;13.15;3.80;;;2.20;99.90;;;;;;5020268;28;20045;-64
2022/01/30 06:20:25;;;;;;;12.93;5.38;;;2.10;99.90;;;;;;5018995;28;20079;-70
2022/01/30 06:22:52;;;;;;;15.27;5.32;;;2.10;99.90;;;;;;5021828;28;20076;-64
2022/01/30 06:25:19;;;;;;;11.73;4.68;;;2.10;99.90;;;;;;5038552;28;20042;-65
2022/01/30 06:27:46;;;;;;;13.25;5.70;;;2.00;99.90;;;;;;5030237;28;20052;-64
2022/01/30 06:30:13;;;;;;;14.40;4.20;;;2.00;99.90;;;;;;5018611;28;20056;-65
2022/01/30 06:32:40;;;;;;;10.60;4.25;;;2.00;99.90;;;;;;5024974;28;20051;-64
2022/01/30 06:35:07;;;;;;;9.77;3.65;;;1.90;99.90;;;;;;5036019;28;20434;-64
2022/01/30 06:37:34;;;;;;;11.15;4.07;;;1.90;99.90;;;;;;5024830;28;20057;-64
2022/01/30 06:40:02;;;;;;;16.77;5.35;;;1.90;99.90;;;;;;5026299;28;20051;-64
2022/01/30 06:42:30;;;;;;;13.55;5.03;;;1.90;99.90;;;;;;5024174;28;20374;-64
2022/01/30 06:44:57;;;;;;;7.90;4.55;;;2.00;99.90;;;;;;5033737;28;20501;-64
2022/01/30 06:47:24;;;;;;;8.15;4.57;;;1.90;99.90;;;;;;5034970;28;20060;-70
2022/01/30 06:49:51;;;;;;;11.70;5.57;;;1.90;99.90;;;;;;5018866;28;20132;-64
2022/01/30 06:52:18;;;;;;;11.23;4.10;;;1.80;99.90;;;;;;4996325;28;20051;-64
2022/01/30 06:54:46;;;;;;;18.92;4.55;;;1.80;99.90;;;;;;5001596;28;20373;-64
2022/01/30 06:57:13;;;;;;;11.60;3.40;;;1.70;99.90;;;;;;5016173;28;20057;-64
2022/01/30 06:59:40;;;;;;;14.70;3.80;;;1.70;99.90;;;;;;5016736;28;20048;-64
2022/01/30 07:02:09;;;;;;;9.45;3.80;;;1.70;99.90;;;;;;5034385;28;20047;-66
2022/01/30 07:04:36;;;;;;;8.73;3.80;;;1.70;99.90;;;;;;5035365;28;20053;-65
2022/01/30 07:07:04;;;;;;;11.77;4.25;;;1.60;99.90;;;;;;5015547;28;20072;-65
2022/01/30 07:09:31;;;;;;;18.92;4.15;;;1.60;99.90;;;;;;5029516;28;20075;-64
2022/01/30 07:11:58;;;;;;;10.68;4.97;;;1.60;99.90;;;;;;5034297;28;20414;-64
2022/01/30 07:14:25;;;;;;;10.40;4.55;;;1.60;99.90;;;;;;5033287;28;20485;-64
2022/01/30 07:16:53;;;;;;;13.38;3.90;;;1.60;99.90;;;;;;5015921;28;20050;-64
2022/01/30 07:19:19;;;;;;;14.43;4.10;;;1.60;99.90;;;;;;5032883;28;20507;-64
2022/01/30 07:21:46;;;;;;;8.82;2.67;;;1.60;99.90;;;;;;5039828;28;20131;-64
2022/01/30 07:24:14;;;;;;;13.45;4.45;;;1.60;99.90;;;;;;5033701;28;20478;-64
2022/01/30 07:26:40;;;;;;;11.52;3.72;;;1.60;99.90;;;;;;5036197;28;20055;-64
2022/01/30 07:29:07;;;;;;;10.77;3.10;;;1.60;99.90;;;;;;5013541;28;20057;-65
2022/01/30 07:31:34;;;;;;;9.07;3.72;;;1.60;99.90;;;;;;5029294;28;20485;-64
2022/01/30 07:34:01;;;;;;;14.93;5.50;;;1.60;99.90;;;;;;5017661;28;20042;-65
2022/01/30 07:36:29;;;;;;;10.30;4.00;;;1.50;99.90;;;;;;5016112;28;20041;-65
2022/01/30 07:38:56;;;;;;;10.30;3.88;;;1.50;99.90;;;;;;5023293;28;20082;-65
2022/01/30 07:41:23;;;;;;;12.50;4.10;;;1.50;99.90;;;;;;5038669;28;20067;-65
2022/01/30 07:43:50;;;;;;;12.75;5.30;;;1.50;99.90;;;;;;5014575;28;20139;-65
2022/01/30 07:46:17;;;;;;;11.73;3.97;;;1.50;99.90;;;;;;5014196;28;20050;-66
2022/01/30 07:48:44;;;;;;;13.25;4.55;;;1.50;99.90;;;;;;5026076;28;20052;-65
2022/01/30 07:51:11;;;;;;;12.38;4.40;;;1.50;99.90;;;;;;5049387;28;20041;-64
2022/01/30 07:53:38;;;;;;;11.10;3.35;;;1.40;99.90;;;;;;5042442;28;20059;-64
2022/01/30 07:56:05;;;;;;;10.30;2.95;;;1.40;99.90;;;;;;5035223;28;20052;-64
2022/01/30 07:58:32;;;;;;;11.45;5.13;;;1.40;99.90;;;;;;5025372;28;20056;-65
2022/01/30 08:00:59;;;;;;;9.50;4.40;;;1.40;99.90;;;;;;5025474;28;20084;-64
2022/01/30 08:03:27;;;;;;;12.13;4.28;;;1.40;99.90;;;;;;5025382;28;20057;-64
2022/01/30 08:05:54;;;;;;;8.55;3.55;;;1.40;99.90;;;;;;5022503;28;20049;-64
2022/01/30 08:08:21;;;;;;;14.23;4.20;;;1.40;99.90;;;;;;5039121;28;20057;-65
2022/01/30 08:10:48;;;;;;;15.60;4.25;;;1.40;99.90;;;;;;5037033;28;20049;-65
2022/01/30 08:13:16;;;;;;;17.10;4.03;;;1.50;99.90;;;;;;5033147;28;20481;-64
2022/01/30 08:15:44;;;;;;;12.38;4.68;;;1.50;99.90;;;;;;5035215;28;20068;-71
2022/01/30 08:18:12;;;;;;;11.88;3.80;;;1.40;99.90;;;;;;5001598;28;20041;-66
2022/01/30 08:20:39;;;;;;;7.25;3.60;;;1.50;99.90;;;;;;5017604;28;20053;-64
2022/01/30 08:23:11;;;;;;;9.75;4.03;;;1.40;99.90;;;;;;5040985;28;20068;-64
2022/01/30 08:25:39;;;;;;;16.70;5.03;;;1.50;99.90;;;;;;5039846;28;20095;-64
2022/01/30 08:28:06;;;;;;;13.25;4.22;;;1.50;99.90;;;;;;5028012;28;20051;-63
2022/01/30 08:30:34;;;;;;;10.38;3.85;;;1.50;99.90;;;;;;5032980;28;20048;-64
2022/01/30 08:33:02;;;;;;;12.10;4.25;;;1.50;99.90;;;;;;5028745;28;20046;-63
2022/01/30 08:35:29;;;;;;;10.05;4.00;;;1.50;99.90;;;;;;5045193;28;20056;-64
2022/01/30 08:37:58;;;;;;;12.20;4.13;;;1.50;99.90;;;;;;5044557;28;20500;-64
2022/01/30 08:40:25;;;;;;;12.52;4.40;;;1.60;99.90;;;;;;5032353;28;20523;-64
2022/01/30 08:42:52;;;;;;;15.80;4.70;;;1.60;99.90;;;;;;5019358;28;20064;-64
2022/01/30 08:45:20;;;;;;;11.23;4.63;;;1.70;99.90;;;;;;5018603;28;20400;-64
2022/01/30 08:47:47;;;;;;;12.98;4.38;;;1.70;99.90;;;;;;5015934;28;20137;-64
2022/01/30 08:50:15;;;;;;;15.50;4.30;;;1.70;99.90;;;;;;5050347;28;20045;-64
2022/01/30 08:52:42;;;;;;;17.45;5.25;;;1.80;99.90;;;;;;5020545;28;20068;-63
2022/01/30 08:55:09;;;;;;;17.98;4.40;;;1.80;99.90;;;;;;5008986;28;20482;-63
2022/01/30 08:57:36;;;;;;;10.45;4.03;;;1.80;99.90;;;;;;5010586;28;20064;-63
2022/01/30 09:00:05;;;;;;;10.48;3.97;;;1.90;99.90;;;;;;5010754;28;20128;-64
2022/01/30 09:02:32;;;;;;;14.63;5.18;;;1.90;99.90;;;;;;5007977;28;20046;-64
2022/01/30 09:04:59;;;;;;;10.18;4.35;;;2.00;99.90;;;;;;4991662;28;20046;-64
2022/01/30 09:07:26;;;;;;;15.45;5.55;;;2.00;99.90;;;;;;4998610;28;20516;-64
2022/01/30 09:09:53;;;;;;;18.42;5.45;;;2.10;99.90;;;;;;5012780;28;20072;-65
2022/01/30 09:12:20;;;;;;;16.30;5.03;;;2.20;99.90;;;;;;5013260;28;20503;-63
2022/01/30 09:14:47;;;;;;;15.75;4.93;;;2.20;99.90;;;;;;5014286;28;20103;-68
2022/01/30 09:17:15;;;;;;;45.38;31.92;;;2.30;99.90;;;;;;5030872;28;20050;-63
2022/01/30 09:19:47;;;;;;;122.78;95.80;;;2.30;99.90;;;;;;5016957;28;20062;-63
2022/01/30 09:22:16;;;;;;;24.27;10.73;;;2.40;99.90;;;;;;4991181;28;20054;-63
2022/01/30 09:24:43;;;;;;;22.52;10.60;;;2.40;99.90;;;;;;4978692;28;20133;-66
2022/01/30 09:27:10;;;;;;;14.60;6.35;;;2.50;99.90;;;;;;5011304;28;20138;-64
2022/01/30 09:29:37;;;;;;;13.98;5.65;;;2.60;99.90;;;;;;5011546;28;20050;-62
2022/01/30 09:32:05;;;;;;;12.85;5.43;;;2.60;99.90;;;;;;5010810;28;20050;-64
2022/01/30 09:34:33;;;;;;;35.50;14.65;;;2.70;99.90;;;;;;5010199;28;20042;-63
2022/01/30 09:37:00;;;;;;;257.92;172.50;;;2.70;99.90;;;;;;5010084;28;20056;-62
2022/01/30 09:39:28;;;;;;;55.38;35.10;;;2.90;99.90;;;;;;5009502;28;20068;-63
2022/01/30 09:41:55;;;;;;;32.38;14.25;;;3.00;99.90;;;;;;5011272;28;20049;-64
2022/01/30 09:44:22;;;;;;;21.17;8.80;;;3.00;99.90;;;;;;5010688;28;20379;-63
2022/01/30 09:46:50;;;;;;;14.57;6.43;;;3.10;99.90;;;;;;5003218;28;20042;-63
2022/01/30 09:49:24;;;;;;;19.77;7.70;;;3.20;99.90;;;;;;5009910;28;20067;-63
2022/01/30 09:51:52;;;;;;;16.13;4.80;;;3.20;99.90;;;;;;4994554;28;20042;-64
2022/01/30 09:54:19;;;;;;;13.90;5.35;;;3.30;99.90;;;;;;5018005;28;20480;-63
2022/01/30 09:56:47;;;;;;;10.88;3.92;;;3.30;99.90;;;;;;5030929;28;20057;-63
2022/01/30 09:59:13;;;;;;;19.65;5.70;;;3.30;99.90;;;;;;5031054;28;20056;-64
2022/01/30 10:01:40;;;;;;;19.63;5.38;;;3.40;99.90;;;;;;5029672;28;20053;-63
2022/01/30 10:04:09;;;;;;;15.60;5.60;;;3.50;99.90;;;;;;4998323;28;20433;-63
2022/01/30 10:07:01;;;;;;;23.85;6.80;;;3.50;99.90;;;;;;5031240;28;20052;-63
2022/01/30 10:09:31;;;;;;;17.77;5.90;;;3.60;99.90;;;;;;5031588;28;20063;-63
2022/01/30 10:12:22;;;;;;;18.95;6.07;;;3.60;99.90;;;;;;5015293;28;20469;-64
2022/01/30 10:14:59;;;;;;;16.23;4.55;;;3.60;99.90;;;;;;5030297;28;20046;-64
2022/01/30 10:17:37;;;;;;;20.65;5.82;;;3.70;99.90;;;;;;5030819;28;20061;-64
2022/01/30 10:20:25;;;;;;;16.40;5.70;;;3.70;99.90;;;;;;5021036;28;20492;-65
2022/01/30 10:22:59;;;;;;;13.50;5.05;;;3.80;99.90;;;;;;4981757;28;20044;-64
2022/01/30 10:25:47;;;;;;;15.57;4.30;;;3.80;99.90;;;;;;5015175;28;20049;-64
2022/01/30 10:28:28;;;;;;;16.50;5.43;;;3.90;99.90;;;;;;5030493;28;20056;-65
2022/01/30 10:31:02;;;;;;;19.20;5.10;;;3.90;99.90;;;;;;5030132;28;20050;-65
2022/01/30 10:33:45;;;;;;;21.55;6.63;;;4.00;99.90;;;;;;5005757;28;20092;-64
2022/01/30 10:36:14;;;;;;;97.78;56.78;;;4.00;99.90;;;;;;5012052;28;20041;-65
2022/01/30 10:38:47;;;;;;;;;;;4.00;99.90;;;;;;5027121;28;20928;-63
2022/01/30 10:41:18;;;;;;;69.32;40.80;;;4.20;99.90;;;;;;5030195;28;20334;-63
2022/01/30 10:43:51;;;;;;;323.75;246.68;;;4.20;99.90;;;;;;5009589;28;20448;-65
2022/01/30 10:46:44;;;;;;;62.40;41.50;;;4.20;99.90;;;;;;5026733;28;20107;-64
2022/01/30 10:49:15;;;;;;;34.85;16.05;;;4.30;99.90;;;;;;4998978;28;20520;-65
2022/01/30 10:52:00;;;;;;;27.15;9.77;;;4.30;99.90;;;;;;5018902;28;20061;-63
2022/01/30 10:54:32;;;;;;;20.80;8.40;;;4.30;99.90;;;;;;4991025;28;20045;-69
2022/01/30 10:57:06;;;;;;;19.80;6.95;;;4.40;99.90;;;;;;5012829;28;20398;-64
2022/01/30 10:59:34;;;;;;;17.42;6.05;;;4.40;99.90;;;;;;4995003;28;20050;-64
2022/01/30 11:02:24;;;;;;;17.52;5.50;;;4.40;99.90;;;;;;4987584;28;20049;-74
2022/01/30 11:05:06;;;;;;;14.93;5.32;;;4.50;99.90;;;;;;4987553;28;20387;-64
2022/01/30 11:07:37;;;;;;;21.65;6.03;;;4.50;99.90;;;;;;4977400;28;20125;-65
2022/01/30 11:10:20;;;;;;;18.25;6.07;;;4.60;99.90;;;;;;4985551;28;20074;-64
2022/01/30 11:12:56;;;;;;;18.73;5.72;;;4.60;99.90;;;;;;4994183;28;20132;-64
2022/01/30 11:17:57;;;;;;;23.10;5.70;;;4.70;99.90;;;;;;5014406;28;20056;-66
2022/01/30 11:20:24;;;;;;;24.02;7.85;;;4.80;99.90;;;;;;4992720;28;20060;-62
2022/01/30 11:22:51;;;;;;;19.15;5.35;;;4.80;99.90;;;;;;4996851;28;20568;-63
2022/01/30 11:25:18;;;;;;;17.45;5.07;;;4.90;99.90;;;;;;4984915;28;20484;-67
2022/01/30 11:27:47;;;;;;;84.82;47.92;;;4.90;99.90;;;;;;4977717;28;20509;-65
2022/01/30 11:30:23;;;;;;;110.32;65.30;;;5.00;99.90;;;;;;4991159;28;20042;-65
2022/01/30 11:32:50;;;;;;;44.38;25.35;;;5.00;99.90;;;;;;4969336;28;20061;-64
2022/01/30 11:35:17;;;;;;;22.38;11.88;;;5.10;99.90;;;;;;4993002;28;20072;-62
2022/01/30 11:37:44;;;;;;;21.88;8.43;;;5.10;99.90;;;;;;4996176;28;20042;-62
2022/01/30 11:40:16;;;;;;;23.85;7.80;;;5.20;99.90;;;;;;4980184;28;20412;-62
2022/01/30 11:42:45;;;;;;;13.70;5.78;;;5.20;99.90;;;;;;4983894;28;20054;-64
2022/01/30 11:45:24;;;;;;;20.67;6.35;;;5.20;99.90;;;;;;4982546;28;20052;-63
2022/01/30 11:48:11;;;;;;;13.55;4.88;;;5.20;99.90;;;;;;5013702;28;20064;-74
2022/01/30 11:50:38;;;;;;;15.73;4.57;;;5.30;99.90;;;;;;4992479;28;20046;-62
2022/01/30 11:53:05;;;;;;;18.42;7.05;;;5.30;99.90;;;;;;5006441;28;20107;-62
2022/01/30 11:55:41;;;;;;;18.35;6.38;;;5.30;99.90;;;;;;5032930;28;20055;-63
2022/01/30 11:58:34;;;;;;;14.48;5.43;;;5.30;99.90;;;;;;5032060;28;20056;-61
2022/01/30 12:01:27;;;;;;;26.52;6.40;;;5.40;99.90;;;;;;5027228;28;20119;-66
2022/01/30 12:03:59;;;;;;;19.33;6.22;;;5.40;99.90;;;;;;5022732;28;20484;-61
2022/01/30 12:06:30;;;;;;;13.50;5.20;;;5.50;99.90;;;;;;5033169;28;20086;-62
2022/01/30 12:09:16;;;;;;;20.85;6.05;;;5.50;99.90;;;;;;5023733;28;20041;-61
2022/01/30 12:11:47;;;;;;;21.23;6.88;;;5.60;99.90;;;;;;5024903;28;20045;-64
2022/01/30 12:14:20;;;;;;;16.88;4.80;;;5.60;99.90;;;;;;5019285;28;20567;-74
2022/01/30 12:16:47;;;;;;;16.20;4.95;;;5.60;99.90;;;;;;5031023;28;20505;-65
2022/01/30 12:19:19;;;;;;;16.52;5.20;;;5.70;99.90;;;;;;5029507;28;20469;-66
2022/01/30 12:21:46;;;;;;;17.30;5.82;;;5.70;99.90;;;;;;5030305;28;20049;-67
2022/01/30 12:24:29;;;;;;;14.95;6.88;;;5.70;99.90;;;;;;5019206;28;20132;-69
2022/01/30 12:27:02;;;;;;;18.30;6.07;;;5.80;99.90;;;;;;4998314;28;20047;-68
2022/01/30 12:29:41;;;;;;;12.30;4.38;;;5.90;99.90;;;;;;4998183;28;20140;-67
2022/01/30 12:32:20;;;;;;;18.48;5.07;;;5.90;99.90;;;;;;5030398;28;20556;-64
2022/01/30 12:35:07;;;;;;;14.52;4.20;;;5.90;99.90;;;;;;4996562;28;20091;-65
2022/01/30 12:37:36;;;;;;;13.02;4.63;;;6.10;99.90;;;;;;5012756;28;20408;-65
2022/01/30 12:40:19;;;;;;;13.05;4.05;;;6.10;99.90;;;;;;5013173;28;20164;-67
2022/01/30 12:42:46;;;;;;;12.95;4.25;;;6.20;98.90;;;;;;5005398;28;20408;-65
2022/01/30 12:45:13;;;;;;;13.40;4.40;;;6.20;99.00;;;;;;4999086;28;20139;-63
2022/01/30 12:47:52;;;;;;;12.98;6.18;;;6.20;99.90;;;;;;5012883;28;20696;-69
2022/01/30 12:50:20;;;;;;;11.03;3.47;;;6.30;97.60;;;;;;5028972;28;20860;-64
2022/01/30 12:52:49;;;;;;;13.90;4.70;;;6.30;97.90;;;;;;4997895;28;20057;-72
2022/01/30 12:55:17;;;;;;;;;;;6.30;97.00;;;;;;5011102;28;20050;-63
2022/01/30 12:57:45;;;;;;;351.52;219.25;;;6.40;95.20;;;;;;5009405;28;19963;-67
2022/01/30 13:00:14;;;;;;;160.32;115.65;;;6.50;96.80;;;;;;5010779;28;20079;-69
2022/01/30 13:03:00;;;;;;;33.50;18.15;;;6.50;96.30;;;;;;5023549;28;20061;-70
2022/01/30 13:05:30;;;;;;;25.23;11.05;;;6.60;93.30;;;;;;5008273;28;20145;-64
2022/01/30 13:07:58;;;;;;;16.10;6.50;;;6.70;93.30;;;;;;5010587;28;20060;-64
2022/01/30 13:10:25;;;;;;;9.40;4.65;;;6.70;93.20;;;;;;5008870;28;20057;-65
2022/01/30 13:12:54;;;;;;;14.82;4.63;;;6.70;93.20;;;;;;5008404;28;20068;-63
2022/01/30 13:15:25;;;;;;;10.68;3.65;;;6.70;93.30;;;;;;4992557;28;20056;-63
2022/01/30 13:17:52;;;;;;;16.67;3.60;;;6.70;92.40;;;;;;5009647;28;20061;-64
2022/01/30 13:20:26;;;;;;;10.50;3.67;;;6.70;91.70;;;;;;5008541;28;20053;-63
2022/01/30 13:22:53;;;;;;;7.28;3.60;;;6.70;90.30;;;;;;5008276;28;20042;-64
2022/01/30 13:25:21;;;;;;;13.88;3.42;;;6.80;90.40;;;;;;5009855;28;20060;-65
2022/01/30 13:27:52;;;;;;;10.43;4.05;;;6.80;90.50;;;;;;4991910;28;20116;-70
2022/01/30 13:30:26;;;;;;;11.80;5.18;;;6.80;90.30;;;;;;5008313;28;20739;-64
2022/01/30 13:32:54;;;;;;;14.00;3.80;;;6.90;90.10;;;;;;5008679;28;20053;-63
2022/01/30 13:35:25;;;;;;;10.32;2.90;;;6.90;89.30;;;;;;4991224;28;20481;-64
2022/01/30 13:37:54;;;;;;;12.57;4.30;;;7.00;87.10;;;;;;5004172;28;20042;-63
2022/01/30 13:40:25;;;;;;;748.78;428.65;;;7.00;87.00;;;;;;4998810;28;20046;-63
2022/01/30 13:42:56;;;;;;;116.90;82.47;;;7.10;87.30;;;;;;5000773;28;20053;-62
2022/01/30 13:48:11;;;;;;;21.70;11.18;;;7.10;84.70;;;;;;4999987;28;20060;-64
2022/01/30 13:50:40;;;;;;;16.08;7.40;;;7.10;85.90;;;;;;5001501;28;20050;-63
2022/01/30 13:53:10;;;;;;;15.02;4.72;;;7.10;86.00;;;;;;4996833;28;20057;-62
2022/01/30 13:55:55;;;;;;;163.65;107.88;;;7.10;85.50;;;;;;5006165;28;20042;-63
2022/01/30 13:58:25;;;;;;;21.70;10.43;;;7.20;85.50;;;;;;5007373;28;20059;-64
2022/01/30 14:00:52;;;;;;;16.63;5.82;;;7.20;85.60;;;;;;5009028;28;20088;-63
2022/01/30 14:03:26;;;;;;;12.90;6.15;;;7.20;86.00;;;;;;5004605;28;20085;-63